Time;durP1;ratioP1;P1;durP2;ratioP2;P2;SDS_P1;SDS_P2;PMS_P1;PMS_P2;Temp;Humidity;BMP_temperature;BMP_pressure;BME280_temperature;BME280_humidity;BME280_pressure;Samples;Min_cycle;Max_cycle;Signal;HPM_P1;HPM_P2
2022/08/31 00:04:02;;;;;;;;;;;20.70;99.90;;;;;;5033376;28;20370;-72
2022/08/31 00:06:29;;;;;;;;;;;20.70;99.90;;;;;;5033645;28;19909;-80
2022/08/31 00:08:54;;;;;;;;;;;20.70;99.90;;;;;;5039445;28;20414;-80
2022/08/31 00:11:27;;;;;;;;;;;20.60;99.90;;;;;;5053171;28;19912;-78
2022/08/31 00:13:54;;;;;;;;;;;20.70;99.90;;;;;;5046552;28;19910;-79
2022/08/31 00:16:19;;;;;;;;;;;20.60;99.90;;;;;;5052564;28;19909;-71
2022/08/31 00:18:45;;;;;;;;;;;20.60;99.90;;;;;;5052841;28;19915;-80
2022/08/31 00:21:11;;;;;;;;;;;20.60;99.90;;;;;;5053326;28;19916;-77
2022/08/31 00:23:36;;;;;;;;;;;20.60;99.90;;;;;;5053231;28;19916;-79
2022/08/31 00:26:02;;;;;;;;;;;20.60;99.90;;;;;;5064090;28;19919;-79
2022/08/31 00:28:28;;;;;;;;;;;20.60;99.90;;;;;;5039921;28;19920;-71
2022/08/31 00:30:53;;;;;;;;;;;20.60;99.90;;;;;;5052696;28;19968;-71
2022/08/31 00:33:19;;;;;;;;;;;20.60;99.90;;;;;;5053228;28;20384;-79
2022/08/31 00:35:44;;;;;;;;;;;20.60;99.90;;;;;;5052920;28;19931;-80
2022/08/31 00:38:10;;;;;;;;;;;20.60;99.90;;;;;;5053176;28;19919;-80
2022/08/31 00:40:36;;;;;;;;;;;20.60;99.90;;;;;;5052537;28;19974;-72
2022/08/31 00:43:02;;;;;;;;;;;20.60;99.90;;;;;;5046423;28;20009;-72
2022/08/31 00:45:28;;;;;;;;;;;20.60;99.90;;;;;;5047249;28;20003;-80
2022/08/31 00:47:54;;;;;;;;;;;20.60;99.90;;;;;;5059192;28;19908;-80
2022/08/31 00:50:20;;;;;;;;;;;20.50;99.90;;;;;;5049627;28;19909;-72
2022/08/31 00:52:49;;;;;;;;;;;20.60;99.90;;;;;;5033003;28;19916;-80
2022/08/31 00:55:29;;;;;;;;;;;20.50;99.90;;;;;;5033222;28;19939;-79
2022/08/31 00:57:56;;;;;;;;;;;20.50;99.90;;;;;;5038654;28;19951;-71
2022/08/31 01:00:24;;;;;;;;;;;20.50;99.90;;;;;;5047856;28;19916;-80
2022/08/31 01:02:49;;;;;;;;;;;20.50;99.90;;;;;;5051917;28;19913;-80
2022/08/31 01:05:15;;;;;;;;;;;20.50;99.90;;;;;;5053007;28;20012;-80
2022/08/31 01:07:42;;;;;;;;;;;20.50;99.90;;;;;;5052734;28;19913;-71
2022/08/31 01:10:08;;;;;;;;;;;20.50;99.90;;;;;;5065474;28;19909;-71
2022/08/31 01:12:34;;;;;;;;;;;20.50;99.90;;;;;;5052317;28;19915;-79
2022/08/31 01:15:01;;;;;;;;;;;20.50;99.90;;;;;;5045947;28;19909;-79
2022/08/31 01:17:26;;;;;;;;;;;20.50;99.90;;;;;;5056742;28;19916;-79
2022/08/31 01:19:52;;;;;;;;;;;20.50;99.90;;;;;;5055362;28;19913;-80
2022/08/31 01:22:21;;;;;;;;;;;20.50;99.90;;;;;;5056519;28;20283;-72
2022/08/31 01:24:47;;;;;;;;;;;20.40;99.90;;;;;;5056534;28;19996;-79
2022/08/31 01:27:14;;;;;;;;;;;20.50;99.90;;;;;;5066117;28;20359;-80
2022/08/31 01:29:39;;;;;;;;;;;20.40;99.90;;;;;;5056355;28;19992;-80
2022/08/31 01:32:05;;;;;;;;;;;20.40;99.90;;;;;;5056123;28;19964;-79
2022/08/31 01:34:31;;;;;;;;;;;20.40;99.90;;;;;;5056176;28;19917;-71
2022/08/31 01:36:57;;;;;;;;;;;20.40;99.90;;;;;;5056140;28;19909;-79
2022/08/31 01:39:22;;;;;;;;;;;20.40;99.90;;;;;;5055741;28;19955;-71
2022/08/31 01:41:48;;;;;;;;;;;20.40;99.90;;;;;;5056080;28;19959;-80
2022/08/31 01:44:15;;;;;;;;;;;20.40;99.90;;;;;;5045398;28;19940;-79
2022/08/31 01:46:41;;;;;;;;;;;20.40;99.90;;;;;;5056010;28;20083;-71
2022/08/31 01:49:07;;;;;;;;;;;20.40;99.90;;;;;;5050853;28;19955;-80
2022/08/31 01:51:33;;;;;;;;;;;20.40;99.90;;;;;;5046638;28;20008;-79
2022/08/31 01:53:58;;;;;;;;;;;20.50;99.90;;;;;;5035950;28;20364;-80
2022/08/31 01:56:27;;;;;;;;;;;20.50;99.90;;;;;;5035937;28;20300;-72
2022/08/31 01:58:53;;;;;;;;;;;20.60;99.90;;;;;;5046651;28;19909;-72
2022/08/31 02:01:20;;;;;;;;;;;20.60;99.90;;;;;;5054656;28;19962;-72
2022/08/31 02:03:46;;;;;;;;;;;20.60;99.90;;;;;;5054817;28;19908;-80
2022/08/31 02:06:12;;;;;;;;;;;20.60;99.90;;;;;;5055424;28;20284;-80
2022/08/31 02:08:38;;;;;;;;;;;20.60;99.90;;;;;;5054751;28;19954;-71
2022/08/31 02:11:04;;;;;;;;;;;20.60;99.90;;;;;;5055745;28;19909;-80
2022/08/31 02:13:30;;;;;;;;;;;20.50;99.90;;;;;;5052681;28;19915;-71
2022/08/31 02:15:55;;;;;;;;;;;20.40;99.90;;;;;;5050666;28;19909;-71
2022/08/31 02:18:21;;;;;;;;;;;20.40;99.90;;;;;;5055329;28;20342;-79
2022/08/31 02:20:46;;;;;;;;;;;20.40;99.90;;;;;;5055293;28;19999;-80
2022/08/31 02:23:12;;;;;;;;;;;20.40;99.90;;;;;;5054464;28;19963;-71
2022/08/31 02:25:37;;;;;;;;;;;20.40;99.90;;;;;;5061064;28;19915;-71
2022/08/31 02:28:03;;;;;;;;;;;20.40;99.90;;;;;;5059572;28;19916;-71
2022/08/31 02:30:28;;;;;;;;;;;20.40;99.90;;;;;;5054980;28;20308;-79
2022/08/31 02:32:54;;;;;;;;;;;20.40;99.90;;;;;;5055129;28;20337;-79
2022/08/31 02:35:19;;;;;;;;;;;20.30;99.90;;;;;;5055093;28;19908;-79
2022/08/31 02:37:45;;;;;;;;;;;20.30;99.90;;;;;;5055004;28;19917;-72
2022/08/31 02:40:11;;;;;;;;;;;20.30;99.90;;;;;;5054614;28;20299;-71
2022/08/31 02:42:36;;;;;;;;;;;20.30;99.90;;;;;;5052457;28;19966;-78
2022/08/31 02:45:03;;;;;;;;;;;20.30;99.90;;;;;;5045850;28;19908;-79
2022/08/31 02:47:30;;;;;;;;;;;20.30;99.90;;;;;;5054883;28;19923;-78
2022/08/31 02:49:55;;;;;;;;;;;20.30;99.90;;;;;;5054422;28;20034;-79
2022/08/31 02:52:21;;;;;;;;;;;20.20;99.90;;;;;;5038465;28;19917;-73
2022/08/31 02:54:46;;;;;;;;;;;20.20;99.90;;;;;;5034432;28;19953;-73
2022/08/31 02:57:12;;;;;;;;;;;20.20;99.90;;;;;;5034879;28;19917;-73
2022/08/31 02:59:37;;;;;;;;;;;20.20;99.90;;;;;;5049278;28;19913;-80
2022/08/31 03:02:03;;;;;;;;;;;20.20;99.90;;;;;;5054716;28;19909;-81
2022/08/31 03:04:28;;;;;;;;;;;20.20;99.90;;;;;;5053766;28;19928;-81
2022/08/31 03:06:54;;;;;;;;;;;20.20;99.90;;;;;;5054875;28;19909;-73
2022/08/31 03:09:19;;;;;;;;;;;20.20;99.90;;;;;;5054522;28;19909;-74
2022/08/31 03:11:45;;;;;;;;;;;20.20;99.90;;;;;;5054197;28;19909;-81
2022/08/31 03:14:10;;;;;;;;;;;20.10;99.90;;;;;;5046425;28;19913;-81
2022/08/31 03:16:39;;;;;;;;;;;20.10;99.90;;;;;;5054353;28;19947;-74
2022/08/31 03:19:05;;;;;;;;;;;20.10;99.90;;;;;;5052763;28;19962;-73
2022/08/31 03:21:31;;;;;;;;;;;20.10;99.90;;;;;;5054432;28;20299;-81
2022/08/31 03:23:57;;;;;;;;;;;20.10;99.90;;;;;;5053815;28;19915;-81
2022/08/31 03:26:22;;;;;;;;;;;20.10;99.90;;;;;;5065381;28;19912;-82
2022/08/31 03:28:48;;;;;;;;;;;20.10;99.90;;;;;;5054258;28;19915;-73
2022/08/31 03:31:13;;;;;;;;;;;20.10;99.90;;;;;;5064497;28;19924;-73
2022/08/31 03:33:39;;;;;;;;;;;20.10;99.90;;;;;;5034134;28;19959;-81
2022/08/31 03:36:06;;;;;;;;;;;20.00;99.90;;;;;;5033922;28;19910;-81
2022/08/31 03:38:31;;;;;;;;;;;20.00;99.90;;;;;;5038981;28;19995;-81
2022/08/31 03:40:57;;;;;;;;;;;20.00;99.90;;;;;;5053722;28;20011;-73
2022/08/31 03:43:23;;;;;;;;;;;20.00;99.90;;;;;;5045039;28;19916;-73
2022/08/31 03:45:48;;;;;;;;;;;19.90;99.90;;;;;;5051085;28;20418;-73
2022/08/31 03:48:14;;;;;;;;;;;19.90;99.90;;;;;;5053862;28;20383;-81
2022/08/31 03:50:40;;;;;;;;;;;19.90;99.90;;;;;;5050754;28;20383;-81
2022/08/31 03:53:06;;;;;;;;;;;19.80;99.90;;;;;;5034032;28;19917;-81
2022/08/31 03:55:33;;;;;;;;;;;19.80;99.90;;;;;;5033751;28;19909;-73
2022/08/31 03:57:58;;;;;;;;;;;19.80;99.90;;;;;;5040029;28;19999;-73
2022/08/31 04:00:24;;;;;;;;;;;19.70;99.90;;;;;;5048857;28;19952;-81
2022/08/31 04:02:50;;;;;;;;;;;19.70;99.90;;;;;;5053550;28;20014;-81
2022/08/31 04:05:16;;;;;;;;;;;19.70;99.90;;;;;;5052805;28;20014;-81
2022/08/31 04:07:42;;;;;;;;;;;19.70;99.90;;;;;;5053761;28;19909;-81
2022/08/31 04:10:08;;;;;;;;;;;19.70;99.90;;;;;;5053361;28;20276;-73
2022/08/31 04:12:33;;;;;;;;;;;19.60;99.90;;;;;;5052701;28;19999;-73
2022/08/31 04:14:59;;;;;;;;;;;19.60;99.90;;;;;;5045372;28;19915;-82
2022/08/31 04:17:24;;;;;;;;;;;19.60;99.90;;;;;;5052312;28;19999;-81
2022/08/31 04:19:50;;;;;;;;;;;19.50;99.90;;;;;;5052697;28;20347;-73
2022/08/31 04:22:15;;;;;;;;;;;19.60;99.90;;;;;;5053222;28;19940;-73
2022/08/31 04:24:41;;;;;;;;;;;19.60;99.90;;;;;;5052962;28;19912;-74
2022/08/31 04:27:06;;;;;;;;;;;19.50;99.90;;;;;;5064465;28;20011;-81
2022/08/31 04:29:32;;;;;;;;;;;19.50;99.90;;;;;;5053074;28;20008;-81
2022/08/31 04:31:57;;;;;;;;;;;19.50;99.90;;;;;;5053021;28;19932;-73
2022/08/31 04:34:24;;;;;;;;;;;19.50;99.90;;;;;;5053200;28;19944;-81
2022/08/31 04:36:49;;;;;;;;;;;19.50;99.90;;;;;;5050648;28;19912;-73
2022/08/31 04:39:15;;;;;;;;;;;19.50;99.90;;;;;;5051649;28;19934;-81
2022/08/31 04:41:40;;;;;;;;;;;19.40;99.90;;;;;;5053059;28;19920;-81
2022/08/31 04:44:06;;;;;;;;;;;19.50;99.90;;;;;;5040500;28;19909;-81
2022/08/31 04:46:34;;;;;;;;;;;19.40;99.90;;;;;;5052508;28;19959;-81
2022/08/31 04:48:59;;;;;;;;;;;19.40;99.90;;;;;;5067881;28;19913;-73
2022/08/31 04:51:26;;;;;;;;;;;19.40;99.90;;;;;;5047407;28;19963;-73
2022/08/31 04:53:52;;;;;;;;;;;19.40;99.90;;;;;;5037087;28;19917;-81
2022/08/31 04:56:19;;;;;;;;;;;19.40;99.90;;;;;;5037315;28;19909;-81
2022/08/31 04:58:52;;;;;;;;;;;19.30;99.90;;;;;;5046374;28;19909;-81
2022/08/31 05:01:19;;;;;;;;;;;19.30;99.90;;;;;;5055464;28;19913;-73
2022/08/31 05:03:49;;;;;;;;;;;19.30;99.90;;;;;;5056675;28;20330;-73
2022/08/31 05:06:16;;;;;;;;;;;19.30;99.90;;;;;;5055926;28;19913;-81
2022/08/31 05:08:41;;;;;;;;;;;19.20;99.90;;;;;;5060400;28;19935;-81
2022/08/31 05:11:08;;;;;;;;;;;19.20;99.90;;;;;;5065591;28;20372;-81
2022/08/31 05:13:36;;;;;;;;;;;19.10;99.90;;;;;;5051392;28;19917;-80
2022/08/31 05:16:07;;;;;;;;;;;19.10;99.90;;;;;;5052688;28;19912;-73
2022/08/31 05:18:33;;;;;;;;;;;19.10;99.90;;;;;;5055888;28;19912;-73
2022/08/31 05:21:11;;;;;;;;;;;19.10;99.90;;;;;;5056215;28;19919;-81
2022/08/31 05:23:37;;;;;;;;;;;19.00;99.90;;;;;;5056276;28;19909;-81
2022/08/31 05:26:03;;;;;;;;;;;19.00;99.90;;;;;;5066575;28;19920;-81
2022/08/31 05:28:28;;;;;;;;;;;19.00;99.90;;;;;;5047609;28;19917;-73
2022/08/31 05:30:56;;;;;;;;;;;19.00;99.90;;;;;;5055857;28;19924;-81
2022/08/31 05:33:22;;;;;;;;;;;19.00;99.90;;;;;;5056289;28;19913;-81
2022/08/31 05:35:47;;;;;;;;;;;18.90;99.90;;;;;;5049231;28;19910;-79
2022/08/31 05:38:13;;;;;;;;;;;18.90;99.90;;;;;;5054900;28;20438;-81
2022/08/31 05:40:38;;;;;;;;;;;18.90;99.90;;;;;;5055269;28;20008;-74
2022/08/31 05:43:04;;;;;;;;;;;18.90;99.90;;;;;;5044651;28;19917;-74
2022/08/31 05:45:29;;;;;;;;;;;18.90;99.90;;;;;;5049641;28;19909;-81
2022/08/31 05:47:55;;;;;;;;;;;18.90;99.90;;;;;;5055175;28;19952;-82
2022/08/31 05:50:20;;;;;;;;;;;18.90;99.90;;;;;;5046824;28;19916;-81
2022/08/31 05:52:46;;;;;;;;;;;18.90;99.90;;;;;;5054848;28;20427;-74
2022/08/31 05:55:11;;;;;;;;;;;19.00;99.90;;;;;;5055149;28;20007;-74
2022/08/31 05:57:39;;;;;;;;;;;19.00;99.90;;;;;;5054236;28;19957;-74
2022/08/31 06:00:08;;;;;;;;;;;19.00;99.90;;;;;;5049441;28;20372;-81
2022/08/31 06:02:34;;;;;;;;;;;19.00;99.90;;;;;;5054856;28;19916;-81
2022/08/31 06:05:00;;;;;;;;;;;19.10;99.90;;;;;;5055040;28;19967;-74
2022/08/31 06:07:25;;;;;;;;;;;19.10;99.90;;;;;;5054585;28;19955;-73
2022/08/31 06:09:51;;;;;;;;;;;19.20;99.90;;;;;;5055387;28;19924;-81
2022/08/31 06:12:18;;;;;;;;;;;19.20;99.90;;;;;;5053632;28;19913;-81
2022/08/31 06:14:44;;;;;;;;;;;19.30;99.90;;;;;;5051505;28;20360;-78
2022/08/31 06:17:09;;;;;;;;;;;19.30;99.90;;;;;;5044354;28;19909;-81
2022/08/31 06:19:36;;;;;;;;;;;19.50;99.90;;;;;;5051544;28;20417;-74
2022/08/31 06:22:02;;;;;;;;;;;19.50;99.90;;;;;;5052452;28;20314;-74
2022/08/31 06:24:27;;;;;;;;;;;19.50;99.90;;;;;;5041453;28;19909;-81
2022/08/31 06:26:55;;;;;;;;;;;19.60;99.90;;;;;;5065980;28;20383;-80
2022/08/31 06:29:20;;;;;;;;;;;19.70;99.90;;;;;;5050315;28;19916;-73
2022/08/31 06:31:46;;;;;;;;;;;19.70;99.90;;;;;;5054590;28;19944;-73
2022/08/31 06:34:13;;;;;;;;;;;19.70;99.90;;;;;;5054653;28;19909;-73
2022/08/31 06:36:38;;;;;;;;;;;19.60;99.90;;;;;;5039589;28;20027;-80
2022/08/31 06:39:04;;;;;;;;;;;19.60;99.90;;;;;;5042412;28;20001;-81
2022/08/31 06:41:31;;;;;;;;;;;19.60;99.90;;;;;;5054360;28;20277;-81
2022/08/31 06:43:58;;;;;;;;;;;19.60;99.90;;;;;;5055300;28;19909;-80
2022/08/31 06:46:23;;;;;;;;;;;19.60;99.90;;;;;;5048969;28;19915;-72
2022/08/31 06:48:52;;;;;;;;;;;19.60;99.90;;;;;;5053633;28;19909;-81
2022/08/31 06:51:17;;;;;;;;;;;19.50;99.90;;;;;;5053877;28;19924;-80
2022/08/31 06:53:43;;;;;;;;;;;19.60;99.90;;;;;;5053264;28;19908;-80
2022/08/31 06:56:10;;;;;;;;;;;19.60;99.90;;;;;;5052929;28;19932;-80
2022/08/31 06:58:35;;;;;;;;;;;19.60;99.90;;;;;;5053219;28;19924;-74
2022/08/31 07:01:05;;;;;;;;;;;19.50;99.90;;;;;;5045376;28;20038;-80
2022/08/31 07:03:33;;;;;;;;;;;19.60;99.90;;;;;;5048808;28;19920;-81
2022/08/31 07:06:03;;;;;;;;;;;19.70;99.90;;;;;;5054283;28;20403;-81
2022/08/31 07:08:28;;;;;;;;;;;19.90;99.90;;;;;;5046677;28;19920;-80
2022/08/31 07:10:54;;;;;;;;;;;19.90;99.90;;;;;;5041834;28;20003;-74
2022/08/31 07:13:19;;;;;;;;;;;20.00;99.90;;;;;;5052018;28;19913;-74
2022/08/31 07:15:45;;;;;;;;;;;20.20;99.90;;;;;;5051181;28;19913;-81
2022/08/31 07:18:10;;;;;;;;;;;20.50;99.90;;;;;;5051827;28;19908;-75
2022/08/31 07:20:36;;;;;;;;;;;20.70;99.90;;;;;;5042287;28;19921;-81
2022/08/31 07:23:01;;;;;;;;;;;20.80;99.90;;;;;;5039439;28;19964;-81
2022/08/31 07:25:27;;;;;;;;;;;20.90;99.90;;;;;;5049535;28;19920;-82
2022/08/31 07:27:54;;;;;;;;;;;21.30;99.90;;;;;;5048083;28;19909;-74
2022/08/31 07:30:22;;;;;;;;;;;21.50;99.90;;;;;;5053155;28;19927;-81
2022/08/31 07:32:49;;;;;;;;;;;21.60;99.90;;;;;;5053668;28;19908;-74
2022/08/31 07:35:16;;;;;;;;;;;21.80;99.90;;;;;;5052057;28;19955;-80
2022/08/31 07:43:10;;;;;;;;;;;22.30;99.90;;;;;;5045486;28;20305;-83
2022/08/31 07:45:35;;;;;;;;;;;22.40;99.90;;;;;;5051157;28;19913;-80
2022/08/31 07:48:01;;;;;;;;;;;22.30;99.90;;;;;;5045066;28;19913;-81
2022/08/31 07:50:29;;;;;;;;;;;22.10;99.90;;;;;;5052787;28;19913;-74
2022/08/31 07:52:56;;;;;;;;;;;22.10;99.90;;;;;;5036226;28;19958;-80
2022/08/31 07:55:23;;;;;;;;;;;22.30;99.90;;;;;;5053043;28;19920;-74
2022/08/31 07:57:52;;;;;;;;;;;22.60;99.90;;;;;;5041234;28;19915;-81
2022/08/31 08:00:28;;;;;;;;;;;23.20;99.90;;;;;;5048240;28;19963;-81
2022/08/31 08:02:54;;;;;;;;;;;23.70;99.90;;;;;;5052659;28;19909;-75
2022/08/31 08:05:21;;;;;;;;;;;24.10;99.90;;;;;;5053046;28;19908;-74
2022/08/31 08:07:51;;;;;;;;;;;24.70;99.90;;;;;;5048643;28;20007;-74
2022/08/31 08:10:18;;;;;;;;;;;25.00;99.90;;;;;;5047567;28;19909;-81
2022/08/31 08:12:47;;;;;;;;;;;25.50;99.90;;;;;;5045516;28;19982;-81
2022/08/31 08:15:13;;;;;;;;;;;26.50;99.90;;;;;;5045889;28;19912;-81
2022/08/31 08:17:39;;;;;;;;;;;27.00;99.90;;;;;;5051876;28;20279;-75
2022/08/31 08:20:05;;;;;;;;;;;27.60;99.90;;;;;;5044456;28;19919;-81
2022/08/31 08:22:30;;;;;;;;;;;28.00;99.90;;;;;;5051268;28;19909;-79
2022/08/31 08:24:59;;;;;;;;;;;27.80;99.90;;;;;;5051600;28;20291;-79
2022/08/31 08:27:25;;;;;;;;;;;27.60;99.90;;;;;;5050965;28;19913;-79
2022/08/31 08:29:51;;;;;;;;;;;27.20;99.90;;;;;;5036047;28;19923;-73
2022/08/31 08:32:17;;;;;;;;;;;26.80;99.90;;;;;;5041037;28;19924;-73
2022/08/31 08:34:43;;;;;;;;;;;26.80;99.90;;;;;;5052616;28;19908;-79
2022/08/31 08:37:09;;;;;;;;;;;27.10;99.90;;;;;;5046903;28;20007;-80
2022/08/31 08:39:36;;;;;;;;;;;27.20;99.90;;;;;;5046303;28;20315;-82
2022/08/31 08:42:02;;;;;;;;;;;26.90;99.90;;;;;;5041528;28;19913;-75
2022/08/31 08:44:29;;;;;;;;;;;26.60;99.90;;;;;;5045912;28;19939;-76
2022/08/31 08:46:57;;;;;;;;;;;27.00;99.90;;;;;;5051535;28;19908;-73
2022/08/31 08:49:41;;;;;;;;;;;26.70;99.90;;;;;;5052611;28;19909;-73
2022/08/31 08:52:11;;;;;;;;;;;26.30;99.90;;;;;;5052602;28;20363;-81
2022/08/31 08:54:39;;;;;;;;;;;26.60;99.90;;;;;;5052602;28;19913;-80
2022/08/31 08:57:15;;;;;;;;;;;26.40;99.90;;;;;;5052222;28;20355;-75
2022/08/31 08:59:45;;;;;;;;;;;26.50;99.90;;;;;;5048201;28;19913;-76
2022/08/31 09:02:22;;;;;;;;;;;26.60;99.90;;;;;;5035887;28;19913;-83
2022/08/31 09:05:00;;;;;;;;;;;26.70;99.90;;;;;;5044317;28;19919;-82
2022/08/31 09:07:36;;;;;;;;;;;27.80;99.90;;;;;;5052716;28;20399;-81
2022/08/31 09:10:21;;;;;;;;;;;29.90;99.90;;;;;;5064454;28;20030;-74
2022/08/31 09:13:00;;;;;;;;;;;31.30;97.80;;;;;;5041545;28;20338;-74
2022/08/31 09:15:44;;;;;;;;;;;32.20;96.50;;;;;;5042759;28;20396;-81
2022/08/31 09:18:16;;;;;;;;;;;31.60;96.50;;;;;;5049840;28;19916;-82
2022/08/31 09:20:41;;;;;;;;;;;30.40;97.30;;;;;;5046640;28;19921;-81
2022/08/31 09:23:07;;;;;;;;;;;30.50;97.60;;;;;;5046125;28;20452;-74
2022/08/31 09:25:51;;;;;;;;;;;30.30;97.40;;;;;;5057846;28;19909;-74
2022/08/31 09:28:17;;;;;;;;;;;30.00;96.60;;;;;;5052706;28;19916;-82
2022/08/31 09:30:43;;;;;;;;;;;29.60;96.90;;;;;;5049820;28;19937;-82
2022/08/31 09:33:17;;;;;;;;;;;29.40;97.60;;;;;;5047869;28;19959;-74
2022/08/31 09:35:43;;;;;;;;;;;29.20;97.40;;;;;;5062714;28;19915;-74
2022/08/31 09:38:11;;;;;;;;;;;29.10;96.70;;;;;;5062845;28;19909;-82
2022/08/31 09:40:41;;;;;;;;;;;29.50;96.50;;;;;;5058786;28;19946;-82
2022/08/31 09:43:25;;;;;;;;;;;30.10;95.80;;;;;;5057056;28;19913;-74
2022/08/31 09:45:56;;;;;;;;;;;30.30;95.40;;;;;;5047454;28;20357;-82
2022/08/31 09:48:41;;;;;;;;;;;30.50;94.90;;;;;;5060162;28;19919;-75
2022/08/31 09:51:07;;;;;;;;;;;30.80;94.70;;;;;;5072925;28;19917;-82
2022/08/31 09:56:22;;;;;;;;;;;31.60;94.00;;;;;;5046793;28;20008;-82
2022/08/31 09:58:49;;;;;;;;;;;32.30;93.20;;;;;;5057987;28;19944;-82
2022/08/31 10:01:18;;;;;;;;;;;32.60;93.30;;;;;;5059278;28;19916;-74
2022/08/31 10:03:44;;;;;;;;;;;32.50;92.30;;;;;;5062765;28;19908;-78
2022/08/31 10:06:23;;;;;;;;;;;32.00;92.70;;;;;;5058610;28;19909;-80
2022/08/31 10:08:56;;;;;;;;;;;31.60;92.70;;;;;;5055872;28;19912;-81
2022/08/31 10:11:25;;;;;;;;;;;32.10;92.70;;;;;;5067979;28;19912;-82
2022/08/31 10:14:03;;;;;;;;;;;33.10;91.80;;;;;;5057795;28;19909;-76
2022/08/31 10:16:50;;;;;;;;;;;33.90;91.00;;;;;;5038928;28;19931;-83
2022/08/31 10:19:33;;;;;;;;;;;34.20;90.80;;;;;;5040802;28;19967;-75
2022/08/31 10:22:02;;;;;;;;;;;34.40;90.30;;;;;;5039586;28;19913;-83
2022/08/31 10:24:36;;;;;;;;;;;34.50;89.90;;;;;;5038851;28;19921;-76
2022/08/31 10:27:06;;;;;;;;;;;33.70;90.20;;;;;;5055519;28;19917;-83
2022/08/31 10:29:38;;;;;;;;;;;33.50;90.30;;;;;;5040778;28;20395;-76
2022/08/31 10:32:10;;;;;;;;;;;33.50;89.50;;;;;;5042359;28;19920;-75
2022/08/31 10:37:30;;;;;;;;;;;32.10;90.80;;;;;;5047045;28;19931;-84
2022/08/31 10:39:57;;;;;;;;;;;32.50;90.50;;;;;;5057879;28;20477;-75
2022/08/31 10:42:36;;;;;;;;;;;32.70;90.50;;;;;;5043711;28;19923;-76
2022/08/31 10:45:09;;;;;;;;;;;32.30;90.10;;;;;;5037837;28;19945;-81
2022/08/31 10:47:43;;;;;;;;;;;31.50;90.30;;;;;;5047749;28;20576;-82
2022/08/31 10:50:12;;;;;;;;;;;31.50;90.70;;;;;;5044068;28;19916;-85
2022/08/31 10:53:01;;;;;;;;;;;31.40;90.90;;;;;;5049172;28;19940;-75
2022/08/31 10:55:36;;;;;;;;;;;31.20;91.20;;;;;;5040889;28;20569;-76
2022/08/31 10:58:01;;;;;;;;;;;30.70;91.30;;;;;;5042877;28;19948;-86
2022/08/31 11:00:44;;;;;;;;;;;30.40;91.70;;;;;;5039732;28;19963;-84
2022/08/31 11:03:17;;;;;;;;;;;29.70;92.40;;;;;;5038898;28;20003;-85
2022/08/31 11:05:48;;;;;;;;;;;29.50;95.90;;;;;;5053205;28;19928;-84
2022/08/31 11:08:26;;;;;;;;;;;29.60;95.80;;;;;;5050959;28;19934;-84
2022/08/31 11:10:53;;;;;;;;;;;29.90;95.50;;;;;;5045876;28;19996;-83
2022/08/31 11:13:22;;;;;;;;;;;29.40;96.90;;;;;;5055539;28;19912;-84
2022/08/31 11:16:03;;;;;;;;;;;28.60;98.60;;;;;;5050844;28;19909;-85
2022/08/31 11:18:39;;;;;;;;;;;28.20;98.40;;;;;;5064488;28;19951;-75
2022/08/31 11:21:23;;;;;;;;;;;28.20;98.40;;;;;;5049531;28;19917;-75
2022/08/31 11:23:54;;;;;;;;;;;28.50;97.90;;;;;;5045970;28;19908;-76
2022/08/31 11:26:32;;;;;;;;;;;28.20;98.80;;;;;;5054757;28;20350;-82
2022/08/31 11:29:08;;;;;;;;;;;27.70;99.60;;;;;;5059397;28;19963;-84
2022/08/31 11:31:35;;;;;;;;;;;27.80;99.70;;;;;;5057251;28;19916;-78
2022/08/31 11:34:10;;;;;;;;;;;28.00;99.90;;;;;;5065136;28;19978;-77
2022/08/31 11:36:49;;;;;;;;;;;28.10;99.90;;;;;;5061602;28;19909;-86
2022/08/31 11:39:19;;;;;;;;;;;29.00;99.50;;;;;;5054767;28;20292;-85
2022/08/31 11:41:45;;;;;;;;;;;29.60;99.00;;;;;;5044122;28;19951;-83
2022/08/31 11:44:29;;;;;;;;;;;29.10;99.20;;;;;;5053415;28;20735;-83
2022/08/31 11:47:01;;;;;;;;;;;28.80;99.30;;;;;;5046673;28;19995;-83
2022/08/31 11:49:37;;;;;;;;;;;28.80;98.10;;;;;;5053863;28;19912;-76
2022/08/31 11:52:09;;;;;;;;;;;28.60;99.40;;;;;;5056284;28;20296;-80
2022/08/31 11:54:40;;;;;;;;;;;28.00;99.90;;;;;;5062009;28;19962;-82
2022/08/31 11:57:14;;;;;;;;;;;28.10;99.90;;;;;;5055396;28;20299;-83
2022/08/31 11:59:44;;;;;;;;;;;28.60;99.90;;;;;;5052951;28;19912;-77
2022/08/31 12:02:19;;;;;;;;;;;28.50;99.80;;;;;;5057951;28;19908;-85
2022/08/31 12:04:45;;;;;;;;;;;27.90;99.90;;;;;;5053168;28;19909;-77
2022/08/31 12:07:15;;;;;;;;;;;27.60;99.90;;;;;;5055953;28;19943;-86
2022/08/31 12:09:58;;;;;;;;;;;27.60;99.90;;;;;;5056694;28;19931;-83
2022/08/31 12:12:38;;;;;;;;;;;27.80;99.90;;;;;;5055099;28;19916;-77
2022/08/31 12:15:09;;;;;;;;;;;27.70;99.90;;;;;;5046846;28;20347;-85
2022/08/31 12:17:35;;;;;;;;;;;27.80;99.90;;;;;;5053316;28;19912;-84
2022/08/31 12:20:06;;;;;;;;;;;27.70;99.90;;;;;;5050311;28;20409;-86
2022/08/31 12:25:41;;;;;;;;;;;27.10;99.90;;;;;;5048854;28;19916;-77
2022/08/31 12:28:13;;;;;;;;;;;26.70;99.90;;;;;;5061648;28;19951;-85
2022/08/31 12:30:46;;;;;;;;;;;26.30;99.90;;;;;;5055352;28;20265;-86
2022/08/31 12:33:15;;;;;;;;;;;26.20;99.90;;;;;;5052301;28;19912;-77
2022/08/31 12:35:41;;;;;;;;;;;26.10;99.90;;;;;;5068470;28;19908;-86
2022/08/31 12:38:09;;;;;;;;;;;26.10;99.90;;;;;;5059048;28;20006;-76
2022/08/31 12:40:41;;;;;;;;;;;25.90;99.90;;;;;;5041190;28;19939;-87
2022/08/31 12:43:07;;;;;;;;;;;25.60;99.90;;;;;;5062369;28;20360;-87
2022/08/31 12:45:38;;;;;;;;;;;25.70;99.90;;;;;;5060366;28;19909;-84
2022/08/31 12:48:04;;;;;;;;;;;25.80;99.90;;;;;;5041140;28;19932;-85
2022/08/31 12:50:37;;;;;;;;;;;25.90;99.90;;;;;;5050996;28;20367;-82
2022/08/31 12:53:31;;;;;;;;;;;25.90;99.90;;;;;;5047639;28;20024;-84
2022/08/31 12:56:15;;;;;;;;;;;25.90;99.90;;;;;;5053189;28;19916;-82
2022/08/31 12:58:40;;;;;;;;;;;25.90;99.90;;;;;;5056354;28;19899;-85
2022/08/31 13:01:07;;;;;;;;;;;25.80;99.90;;;;;;5057667;28;20379;-84
2022/08/31 13:03:33;;;;;;;;;;;25.90;99.90;;;;;;5065713;28;20433;-82
2022/08/31 13:05:59;;;;;;;;;;;25.80;99.90;;;;;;5049257;28;19912;-81
2022/08/31 13:08:25;;;;;;;;;;;25.80;99.90;;;;;;5056151;28;20363;-82
2022/08/31 13:10:51;;;;;;;;;;;25.60;99.90;;;;;;5065371;28;19949;-81
2022/08/31 13:13:21;;;;;;;;;;;25.60;99.90;;;;;;5055954;28;19956;-82
2022/08/31 13:15:47;;;;;;;;;;;25.70;99.90;;;;;;5050087;28;19995;-82
2022/08/31 13:18:21;;;;;;;;;;;25.80;99.90;;;;;;5067904;28;20363;-82
2022/08/31 13:20:46;;;;;;;;;;;25.80;99.90;;;;;;5053995;28;20431;-82
2022/08/31 13:23:20;;;;;;;;;;;25.80;99.90;;;;;;5047165;28;19996;-80
2022/08/31 13:25:57;;;;;;;;;;;26.00;99.90;;;;;;5046077;28;19948;-81
2022/08/31 13:28:29;;;;;;;;;;;26.10;99.90;;;;;;5050871;28;19973;-82
2022/08/31 13:31:02;;;;;;;;;;;26.20;99.90;;;;;;5063356;28;19924;-83
2022/08/31 13:33:30;;;;;;;;;;;26.50;99.90;;;;;;5036659;28;19960;-82
2022/08/31 13:36:01;;;;;;;;;;;26.60;99.90;;;;;;5052184;28;19913;-82
2022/08/31 13:38:41;;;;;;;;;;;26.70;99.90;;;;;;5055611;28;19916;-82
2022/08/31 13:41:26;;;;;;;;;;;27.10;99.90;;;;;;5052492;28;19920;-82
2022/08/31 13:44:00;;;;;;;;;;;27.50;99.90;;;;;;5064422;28;19912;-81
2022/08/31 13:46:41;;;;;;;;;;;27.90;99.90;;;;;;5053899;28;19908;-82
2022/08/31 13:49:09;;;;;;;;;;;28.00;99.90;;;;;;5048422;28;20029;-79
2022/08/31 13:51:38;;;;;;;;;;;28.70;99.90;;;;;;5046305;28;19917;-86
2022/08/31 13:54:06;;;;;;;;;;;28.90;99.90;;;;;;5062114;28;19952;-76
2022/08/31 13:59:18;;;;;;;;;;;29.00;99.90;;;;;;5052346;28;19924;-85
2022/08/31 14:01:48;;;;;;;;;;;29.20;99.70;;;;;;5052780;28;19921;-83
2022/08/31 14:05:03;;;;;;;;;;;29.40;99.50;;;;;;5045096;28;19920;-86
2022/08/31 14:07:44;;;;;;;;;;;29.80;98.70;;;;;;5047833;28;19909;-75
2022/08/31 14:10:13;;;;;;;;;;;29.70;98.20;;;;;;5057368;28;19916;-85
2022/08/31 14:12:49;;;;;;;;;;;29.20;98.40;;;;;;5053338;28;19912;-85
2022/08/31 14:15:16;;;;;;;;;;;29.10;98.30;;;;;;5059931;28;20035;-86
2022/08/31 14:17:43;;;;;;;;;;;28.70;99.00;;;;;;5058704;28;20292;-83
2022/08/31 14:20:32;;;;;;;;;;;28.30;98.80;;;;;;5044757;28;19934;-85
2022/08/31 14:23:16;;;;;;;;;;;28.30;99.50;;;;;;5067595;28;19913;-74
2022/08/31 14:25:42;;;;;;;;;;;28.30;99.40;;;;;;5053447;28;20326;-75
2022/08/31 14:28:07;;;;;;;;;;;28.10;99.50;;;;;;5052830;28;19908;-85
2022/08/31 14:30:34;;;;;;;;;;;28.00;99.80;;;;;;5054717;28;19924;-82
2022/08/31 14:33:00;;;;;;;;;;;28.40;99.00;;;;;;5080073;28;20405;-74
2022/08/31 14:35:25;;;;;;;;;;;29.40;98.60;;;;;;5056944;28;19909;-75
2022/08/31 14:37:51;;;;;;;;;;;30.20;98.10;;;;;;5056143;28;19915;-84
2022/08/31 14:40:17;;;;;;;;;;;30.20;97.60;;;;;;5053955;28;19921;-84
2022/08/31 14:42:43;;;;;;;;;;;30.40;97.40;;;;;;5052400;28;19913;-87
2022/08/31 14:45:17;;;;;;;;;;;30.70;97.30;;;;;;5054578;28;19912;-85